Mali Airport


Codes: WATM/ARD
Name: Mali Airport
City: Alor Island
Country: Indonesia
Elevation: 10 ft.

Photos at Mali Airport


   Photos courtesy of SpottingLog. You can add your own sightings and photos by signing up for a free trial today.



No photos found.

Weather at Mali Airport


Time (UTC)DescriptionTempratureWindCloud coverageVisibilityPressureHumidity
21-Feb-2024 03:00Light Rain29°C9 mph, NW71%10000m1011hPa77%
21-Feb-2024 06:00Light Rain29°C9 mph, NW73%10000m1010hPa78%
21-Feb-2024 09:00Light Rain28°C7 mph, NW61%10000m1010hPa81%
21-Feb-2024 12:00Light Rain27°C4 mph, NW78%10000m1011hPa88%
21-Feb-2024 15:00Light Rain27°C4 mph, NW100%10000m1012hPa85%
21-Feb-2024 18:00Light Rain26°C4 mph, W100%10000m1010hPa87%
21-Feb-2024 21:00Light Rain26°C2 mph, W99%10000m1012hPa87%
22-Feb-2024 00:00Light Rain28°C2 mph, NW99%10000m1013hPa79%
22-Feb-2024 03:00Overcast Clouds30°C4 mph, NW100%10000m1012hPa70%
22-Feb-2024 06:00Light Rain30°C7 mph, NW100%10000m1010hPa71%
22-Feb-2024 09:00Overcast Clouds29°C4 mph, NW96%10000m1010hPa74%
22-Feb-2024 12:00Overcast Clouds27°C2 mph, W87%10000m1011hPa84%
22-Feb-2024 15:00Broken Clouds27°C2 mph, NW71%10000m1012hPa84%
22-Feb-2024 18:00Overcast Clouds27°C0 mph, W86%10000m1010hPa85%
22-Feb-2024 21:00Overcast Clouds27°C2 mph, S100%10000m1012hPa82%
23-Feb-2024 00:00Overcast Clouds29°C2 mph, W99%10000m1013hPa72%
23-Feb-2024 03:00Overcast Clouds31°C4 mph, NW97%10000m1012hPa66%
23-Feb-2024 06:00Light Rain31°C7 mph, NW98%10000m1010hPa67%
23-Feb-2024 09:00Light Rain29°C7 mph, NW96%10000m1010hPa74%
23-Feb-2024 12:00Overcast Clouds27°C4 mph, W91%10000m1011hPa85%
23-Feb-2024 15:00Overcast Clouds27°C4 mph, W97%10000m1012hPa86%
23-Feb-2024 18:00Light Rain27°C4 mph, W99%10000m1010hPa87%
23-Feb-2024 21:00Light Rain27°C4 mph, SW100%10000m1011hPa85%
24-Feb-2024 00:00Light Rain29°C7 mph, W98%10000m1012hPa76%
24-Feb-2024 03:00Light Rain31°C9 mph, W63%10000m1011hPa70%
24-Feb-2024 06:00Light Rain30°C9 mph, W64%10000m1008hPa75%
24-Feb-2024 09:00Light Rain29°C9 mph, W83%10000m1008hPa80%
24-Feb-2024 12:00Light Rain27°C9 mph, W76%10000m1010hPa88%
24-Feb-2024 15:00Light Rain27°C7 mph, SW82%10000m1011hPa87%
24-Feb-2024 18:00Light Rain27°C7 mph, SW87%10000m1009hPa83%
24-Feb-2024 21:00Light Rain27°C4 mph, SW89%10000m1010hPa82%
25-Feb-2024 00:00Light Rain28°C7 mph, SW94%10000m1011hPa77%
25-Feb-2024 03:00Light Rain31°C9 mph, W86%10000m1009hPa68%
25-Feb-2024 06:00Light Rain29°C11 mph, W83%10000m1007hPa76%
25-Feb-2024 09:00Moderate Rain28°C11 mph, W99%10000m1008hPa84%
25-Feb-2024 12:00Light Rain27°C9 mph, W99%10000m1009hPa88%
25-Feb-2024 15:00Light Rain27°C9 mph, W100%10000m1010hPa89%
25-Feb-2024 18:00Light Rain26°C9 mph, W100%10000m1008hPa88%
25-Feb-2024 21:00Light Rain26°C7 mph, W98%10000m1009hPa87%
26-Feb-2024 00:00Light Rain27°C4 mph, W99%10000m1011hPa81%